Time;durP1;ratioP1;P1;durP2;ratioP2;P2;SDS_P1;SDS_P2;PMS_P1;PMS_P2;Temp;Humidity;BMP_temperature;BMP_pressure;BME280_temperature;BME280_humidity;BME280_pressure;Samples;Min_cycle;Max_cycle;Signal;HPM_P1;HPM_P2
2023/04/01 00:01:48;;;;;;;10.93;5.78;;;10.00;99.90;;;;;;5022252;28;20045;-76
2023/04/01 00:04:15;;;;;;;9.50;6.30;;;10.00;99.90;;;;;;5040353;28;20064;-77
2023/04/01 00:06:41;;;;;;;9.82;6.20;;;10.00;99.90;;;;;;5057548;28;20032;-76
2023/04/01 00:09:07;;;;;;;9.35;6.18;;;10.00;99.90;;;;;;5037277;28;20056;-76
2023/04/01 00:11:32;;;;;;;8.25;5.60;;;9.90;99.90;;;;;;5039694;28;20037;-77
2023/04/01 00:13:58;;;;;;;10.30;5.97;;;9.90;99.90;;;;;;5041489;28;20758;-77
2023/04/01 00:16:24;;;;;;;9.65;6.07;;;10.00;99.90;;;;;;5040375;28;20068;-77
2023/04/01 00:18:51;;;;;;;10.18;5.78;;;9.90;99.90;;;;;;5052737;28;20400;-77
2023/04/01 00:21:17;;;;;;;10.05;5.45;;;9.90;99.90;;;;;;5043659;28;20048;-77
2023/04/01 00:23:46;;;;;;;8.27;5.72;;;10.00;99.90;;;;;;5046965;28;20737;-76
2023/04/01 00:26:12;;;;;;;10.85;5.95;;;10.00;99.90;;;;;;5029864;28;20758;-76
2023/04/01 00:28:37;;;;;;;8.52;5.68;;;9.90;99.90;;;;;;5062704;28;20158;-76
2023/04/01 00:31:08;;;;;;;8.65;6.13;;;10.00;99.90;;;;;;5045238;28;20155;-75
2023/04/01 00:33:34;;;;;;;9.30;6.40;;;10.00;99.90;;;;;;5021160;28;20224;-76
2023/04/01 00:36:11;;;;;;;8.82;6.07;;;9.90;99.90;;;;;;5042893;28;20214;-75
2023/04/01 00:38:37;;;;;;;8.18;5.65;;;9.90;99.90;;;;;;5051272;28;20087;-75
2023/04/01 00:41:04;;;;;;;9.95;5.90;;;9.90;99.90;;;;;;5039214;28;20049;-75
2023/04/01 00:43:31;;;;;;;12.15;6.50;;;9.90;99.90;;;;;;5029433;28;20045;-75
2023/04/01 00:45:57;;;;;;;10.10;6.25;;;9.90;99.90;;;;;;5045493;28;20406;-76
2023/04/01 00:48:29;;;;;;;10.55;6.50;;;10.10;99.90;;;;;;5044869;28;20041;-75
2023/04/01 00:51:03;;;;;;;;;;;9.90;99.90;;;;;;5030445;28;20055;-76
2023/04/01 00:53:31;;;;;;;11.32;6.95;;;10.00;99.90;;;;;;5017991;28;20040;-76
2023/04/01 00:56:02;;;;;;;10.07;7.18;;;9.90;99.90;;;;;;5014194;28;20083;-76
2023/04/01 00:58:32;;;;;;;10.30;7.00;;;9.90;99.90;;;;;;5031676;28;20052;-77
2023/04/01 01:00:59;;;;;;;10.02;6.85;;;9.90;99.90;;;;;;5015737;28;20413;-75
2023/04/01 01:03:25;;;;;;;12.10;7.03;;;9.90;99.90;;;;;;5030500;28;20492;-76
2023/04/01 01:06:25;;;;;;;11.43;6.97;;;9.90;99.90;;;;;;5015507;28;20067;-76
2023/04/01 01:09:08;;;;;;;13.35;7.43;;;9.90;99.90;;;;;;5045117;28;20076;-76
2023/04/01 01:11:42;;;;;;;10.45;7.03;;;9.90;99.90;;;;;;5030726;28;20037;-76
2023/04/01 01:14:17;;;;;;;10.18;6.50;;;9.90;99.90;;;;;;5018943;28;20527;-76
2023/04/01 01:16:50;;;;;;;12.25;7.22;;;9.90;99.90;;;;;;5036276;28;20333;-77
2023/04/01 01:19:49;;;;;;;12.75;6.43;;;9.90;99.90;;;;;;5016055;28;20076;-76
2023/04/01 01:23:00;;;;;;;9.77;6.75;;;9.90;99.90;;;;;;5019029;28;20048;-77
2023/04/01 01:25:29;;;;;;;10.10;6.43;;;9.90;99.90;;;;;;5011544;28;20084;-77
2023/04/01 01:28:12;;;;;;;10.57;6.55;;;9.90;99.90;;;;;;5045816;28;20056;-77
2023/04/01 01:31:00;;;;;;;10.38;6.10;;;9.90;99.90;;;;;;5012536;28;20049;-77
2023/04/01 01:33:55;;;;;;;9.88;6.90;;;9.90;99.90;;;;;;5032624;28;20052;-77
2023/04/01 01:36:22;;;;;;;8.98;6.55;;;9.90;99.90;;;;;;5028395;28;20521;-76
2023/04/01 01:38:49;;;;;;;10.43;6.80;;;9.90;99.90;;;;;;5010472;28;20530;-76
2023/04/01 01:41:17;;;;;;;10.27;6.93;;;9.80;99.90;;;;;;5004761;28;20505;-77
2023/04/01 01:43:48;;;;;;;11.70;7.57;;;9.90;99.90;;;;;;5024074;28;20103;-77
2023/04/01 01:46:19;;;;;;;10.75;7.68;;;9.90;99.90;;;;;;5025128;28;20490;-76
2023/04/01 01:48:47;;;;;;;12.75;7.88;;;9.90;99.90;;;;;;5032957;28;20602;-77
2023/04/01 01:51:13;;;;;;;12.05;7.82;;;9.90;99.90;;;;;;5039038;28;20139;-76
2023/04/01 01:53:39;;;;;;;11.82;8.02;;;9.80;99.90;;;;;;5031088;28;20037;-77
2023/04/01 01:56:05;;;;;;;12.45;8.13;;;9.90;99.90;;;;;;5020165;28;20096;-76
2023/04/01 01:58:42;;;;;;;10.00;7.50;;;9.80;99.90;;;;;;5008272;28;20634;-76
2023/04/01 02:01:14;;;;;;;12.25;8.10;;;9.90;99.90;;;;;;5028756;28;20041;-77
2023/04/01 02:03:42;;;;;;;12.23;7.97;;;9.80;99.90;;;;;;5024997;28;20044;-76
2023/04/01 02:06:10;;;;;;;11.00;7.70;;;9.80;99.90;;;;;;5031009;28;20048;-76
2023/04/01 02:08:56;;;;;;;12.25;7.88;;;9.80;99.90;;;;;;5017659;28;20403;-76
2023/04/01 02:11:33;;;;;;;13.13;7.95;;;9.80;99.90;;;;;;5025685;28;20036;-76
2023/04/01 02:14:10;;;;;;;13.10;8.70;;;9.80;99.90;;;;;;5033794;28;20053;-76
2023/04/01 02:17:09;;;;;;;12.07;7.38;;;9.80;99.90;;;;;;5020223;28;20392;-75
2023/04/01 02:19:41;;;;;;;14.60;8.32;;;9.80;99.90;;;;;;5001568;28;20623;-77
2023/04/01 02:22:13;;;;;;;11.90;8.73;;;9.90;99.90;;;;;;5033716;28;20045;-76
2023/04/01 02:24:41;;;;;;;15.25;9.07;;;9.80;99.90;;;;;;5025526;28;20586;-75
2023/04/01 02:27:08;;;;;;;12.93;9.07;;;9.80;99.90;;;;;;5008422;28;20052;-75
2023/04/01 02:29:34;;;;;;;14.15;9.05;;;9.80;99.90;;;;;;5020913;28;20461;-76
2023/04/01 02:32:00;;;;;;;12.07;9.43;;;9.80;99.90;;;;;;5025323;28;20076;-76
2023/04/01 02:34:26;;;;;;;15.20;9.60;;;10.10;99.90;;;;;;5018455;28;20088;-76
2023/04/01 02:36:53;;;;;;;14.80;10.15;;;9.80;99.90;;;;;;5006742;28;20072;-75
2023/04/01 02:39:19;;;;;;;13.32;9.05;;;9.80;99.90;;;;;;5027222;28;20065;-76
2023/04/01 02:41:46;;;;;;;12.52;9.35;;;9.80;99.90;;;;;;5039954;28;20053;-75
2023/04/01 02:44:16;;;;;;;13.73;9.18;;;9.80;99.90;;;;;;5036404;28;20083;-75
2023/04/01 02:46:42;;;;;;;13.47;8.57;;;9.80;99.90;;;;;;5039921;28;20493;-75
2023/04/01 02:49:08;;;;;;;14.32;9.18;;;9.80;99.90;;;;;;5020348;28;20318;-76
2023/04/01 02:51:34;;;;;;;13.05;9.15;;;9.90;99.90;;;;;;5040644;28;20134;-76
2023/04/01 02:54:00;;;;;;;17.17;9.90;;;9.80;99.90;;;;;;5037859;28;20056;-75
2023/04/01 02:56:25;;;;;;;15.35;9.80;;;9.80;99.90;;;;;;5042659;28;20374;-75
2023/04/01 02:58:52;;;;;;;14.60;9.70;;;9.80;99.90;;;;;;5031838;28;20051;-75
2023/04/01 03:01:18;;;;;;;16.27;10.93;;;9.80;99.90;;;;;;5034482;28;20060;-75
2023/04/01 03:03:52;;;;;;;13.32;9.60;;;9.80;99.90;;;;;;5039951;28;20391;-75
2023/04/01 03:06:18;;;;;;;18.13;9.70;;;9.70;99.90;;;;;;5041616;28;20037;-74
2023/04/01 03:08:47;;;;;;;15.18;10.10;;;9.70;99.90;;;;;;5033202;28;20033;-75
2023/04/01 03:11:13;;;;;;;14.73;9.68;;;9.80;99.90;;;;;;5019588;28;20045;-75
2023/04/01 03:13:39;;;;;;;15.73;9.90;;;9.80;99.90;;;;;;5031182;28;20425;-75
2023/04/01 03:16:05;;;;;;;15.13;10.32;;;9.80;99.90;;;;;;5040572;28;20055;-76
2023/04/01 03:18:30;;;;;;;16.42;10.20;;;9.80;99.90;;;;;;5033902;28;20041;-76
2023/04/01 03:20:56;;;;;;;16.15;9.88;;;9.80;99.90;;;;;;5037610;28;20041;-75
2023/04/01 03:23:24;;;;;;;16.02;10.52;;;9.80;99.90;;;;;;5038005;28;20072;-75
2023/04/01 03:25:50;;;;;;;13.90;9.90;;;9.80;99.90;;;;;;5041691;28;20076;-76
2023/04/01 03:28:15;;;;;;;13.93;9.95;;;9.80;99.90;;;;;;5032375;28;20064;-75
2023/04/01 03:30:41;;;;;;;14.63;10.68;;;9.80;99.90;;;;;;5042316;28;20049;-75
2023/04/01 03:33:07;;;;;;;15.07;10.38;;;9.80;99.90;;;;;;5039691;28;20037;-76
2023/04/01 03:35:35;;;;;;;16.00;10.32;;;9.80;99.90;;;;;;5026292;28;20037;-76
2023/04/01 03:38:01;;;;;;;15.52;11.23;;;9.70;99.90;;;;;;5042086;28;20063;-76
2023/04/01 03:40:27;;;;;;;13.73;10.13;;;9.80;99.90;;;;;;5042237;28;20460;-76
2023/04/01 03:42:53;;;;;;;18.17;10.23;;;9.70;99.90;;;;;;5037111;28;20049;-76
2023/04/01 03:45:18;;;;;;;17.45;10.18;;;9.70;99.90;;;;;;5040962;28;20048;-75
2023/04/01 03:47:47;;;;;;;16.02;10.55;;;9.80;99.90;;;;;;5026154;28;20055;-75
2023/04/01 03:50:13;;;;;;;15.48;9.75;;;9.70;99.90;;;;;;5042083;28;20355;-75
2023/04/01 03:52:39;;;;;;;14.50;9.88;;;9.70;99.90;;;;;;5035740;28;20055;-75
2023/04/01 03:55:05;;;;;;;14.85;10.48;;;9.70;99.90;;;;;;5041292;28;20132;-75
2023/04/01 03:57:31;;;;;;;15.38;11.43;;;9.70;99.90;;;;;;5046290;28;20144;-75
2023/04/01 03:59:57;;;;;;;17.15;11.90;;;9.70;99.90;;;;;;5037037;28;20471;-75
2023/04/01 04:02:23;;;;;;;20.27;12.20;;;9.70;99.90;;;;;;5034547;28;20127;-76
2023/04/01 04:04:48;;;;;;;19.92;12.80;;;9.70;99.90;;;;;;5041837;28;20053;-74
2023/04/01 04:07:14;;;;;;;18.23;12.10;;;9.70;99.90;;;;;;5023161;28;20440;-75
2023/04/01 04:09:40;;;;;;;19.00;12.10;;;9.70;99.90;;;;;;5042361;28;20083;-75
2023/04/01 04:12:06;;;;;;;20.63;12.95;;;9.70;99.90;;;;;;5040587;28;20943;-76
2023/04/01 04:14:32;;;;;;;17.63;12.98;;;9.70;99.90;;;;;;5035782;28;20042;-77
2023/04/01 04:16:58;;;;;;;19.08;12.55;;;9.70;99.90;;;;;;5035278;28;20044;-77
2023/04/01 04:19:23;;;;;;;17.75;12.45;;;9.70;99.90;;;;;;5042155;28;20130;-77
2023/04/01 04:21:49;;;;;;;17.75;12.93;;;9.70;99.90;;;;;;5043701;28;20045;-77
2023/04/01 04:24:15;;;;;;;17.77;13.07;;;9.70;99.90;;;;;;5045029;28;20458;-74
2023/04/01 04:26:40;;;;;;;20.85;13.10;;;9.70;99.90;;;;;;5039760;28;20040;-74
2023/04/01 04:29:06;;;;;;;20.63;14.27;;;9.70;99.90;;;;;;5037632;28;20060;-74
2023/04/01 04:31:32;;;;;;;18.45;13.30;;;9.40;99.90;;;;;;5024559;28;20041;-74
2023/04/01 04:34:00;;;;;;;19.17;13.85;;;9.70;99.90;;;;;;5043365;28;20497;-75
2023/04/01 04:36:26;;;;;;;22.92;14.05;;;9.70;99.90;;;;;;5038871;28;20078;-73
2023/04/01 04:38:52;;;;;;;21.90;14.00;;;10.00;99.90;;;;;;5037301;28;20141;-75
2023/04/01 04:41:19;;;;;;;20.25;14.15;;;9.70;99.90;;;;;;5026970;28;20064;-74
2023/04/01 04:43:53;;;;;;;19.90;14.23;;;9.70;99.90;;;;;;5034632;28;20048;-74
2023/04/01 04:46:21;;;;;;;18.40;13.98;;;9.70;99.90;;;;;;5041339;28;20065;-75
2023/04/01 04:48:48;;;;;;;20.45;14.00;;;9.70;99.90;;;;;;5042174;28;20045;-74
2023/04/01 04:51:15;;;;;;;18.63;14.20;;;9.70;99.90;;;;;;5029831;28;20076;-74
2023/04/01 04:53:42;;;;;;;23.17;14.05;;;9.70;99.90;;;;;;5044140;28;20404;-74
2023/04/01 04:56:07;;;;;;;21.60;14.38;;;9.70;99.90;;;;;;5040186;28;20072;-74
2023/04/01 04:58:33;;;;;;;20.65;14.13;;;9.70;99.90;;;;;;5036640;28;20707;-74
2023/04/01 05:01:05;;;;;;;20.55;14.30;;;9.70;99.90;;;;;;5041901;28;20120;-74
2023/04/01 05:03:30;;;;;;;20.45;13.57;;;9.70;99.90;;;;;;5040742;28;20056;-74
2023/04/01 05:05:56;;;;;;;19.33;14.15;;;9.70;99.90;;;;;;5043359;28;20056;-73
2023/04/01 05:08:22;;;;;;;19.63;13.93;;;9.70;99.90;;;;;;5060209;28;20425;-73
2023/04/01 05:10:48;;;;;;;18.90;13.13;;;9.70;99.90;;;;;;5055919;28;20036;-74
2023/04/01 05:13:14;;;;;;;20.83;14.43;;;9.70;99.90;;;;;;5038089;28;20045;-74
2023/04/01 05:15:40;;;;;;;21.95;14.57;;;9.70;99.90;;;;;;5041404;28;20039;-73
2023/04/01 05:18:05;;;;;;;22.20;14.65;;;9.70;99.90;;;;;;5029616;28;20128;-74
2023/04/01 05:20:31;;;;;;;20.80;14.77;;;9.70;99.90;;;;;;5015545;28;20037;-73
2023/04/01 05:22:57;;;;;;;19.25;13.80;;;9.70;99.90;;;;;;5019839;28;20087;-74
2023/04/01 05:25:23;;;;;;;18.98;14.00;;;9.70;99.90;;;;;;5018955;28;20771;-73
2023/04/01 05:27:49;;;;;;;21.02;14.85;;;9.70;99.90;;;;;;5039721;28;20120;-74
2023/04/01 05:30:15;;;;;;;20.65;15.23;;;9.70;99.90;;;;;;5045359;28;20069;-73
2023/04/01 05:32:41;;;;;;;20.20;14.55;;;9.70;99.90;;;;;;5043666;28;20076;-74
2023/04/01 05:35:07;;;;;;;21.27;14.73;;;9.70;99.90;;;;;;5048161;28;20103;-73
2023/04/01 05:37:36;;;;;;;20.92;14.23;;;9.70;99.90;;;;;;5031685;28;20037;-74
2023/04/01 05:40:04;;;;;;;24.23;15.30;;;9.70;99.90;;;;;;5032120;28;20091;-74
2023/04/01 05:42:29;;;;;;;21.80;15.23;;;9.70;99.90;;;;;;5032353;28;20049;-74
2023/04/01 05:44:55;;;;;;;22.35;14.40;;;9.70;99.90;;;;;;5032608;28;20049;-74
2023/04/01 05:47:22;;;;;;;18.52;13.57;;;9.90;99.90;;;;;;5033934;28;20044;-75
2023/04/01 05:49:50;;;;;;;22.27;14.77;;;9.80;99.90;;;;;;5037995;28;20056;-74
2023/04/01 05:52:16;;;;;;;22.25;14.68;;;9.80;99.90;;;;;;5012058;28;20269;-74
2023/04/01 05:54:42;;;;;;;19.67;14.00;;;9.70;99.90;;;;;;5032087;28;20040;-74
2023/04/01 05:57:07;;;;;;;21.05;13.70;;;9.70;99.90;;;;;;5030325;28;20056;-74
2023/04/01 05:59:34;;;;;;;17.60;11.52;;;9.70;99.90;;;;;;5037528;28;20482;-73
2023/04/01 06:02:01;;;;;;;17.42;11.63;;;9.70;99.90;;;;;;5026729;28;20064;-73
2023/04/01 06:04:33;;;;;;;18.30;11.80;;;9.80;99.90;;;;;;5040299;28;20088;-73
2023/04/01 06:06:59;;;;;;;17.45;11.75;;;9.70;99.90;;;;;;5035126;28;20461;-73
2023/04/01 06:09:28;;;;;;;17.10;12.13;;;9.80;99.90;;;;;;5036269;28;20029;-73
2023/04/01 06:12:15;;;;;;;17.00;10.85;;;9.70;99.90;;;;;;5015391;28;20144;-73
2023/04/01 06:15:10;;;;;;;15.73;11.00;;;9.70;99.90;;;;;;5039490;28;20063;-74
2023/04/01 06:18:08;;;;;;;16.58;10.38;;;9.70;99.90;;;;;;5032453;28;20421;-73
2023/04/01 06:20:48;;;;;;;17.77;11.13;;;9.70;99.90;;;;;;4969100;28;20058;-74
2023/04/01 06:23:23;;;;;;;16.13;11.23;;;9.70;99.90;;;;;;5024618;28;20375;-75
2023/04/01 06:26:13;;;;;;;15.48;10.90;;;9.70;99.90;;;;;;5041871;28;20464;-76
2023/04/01 06:28:57;;;;;;;18.42;12.23;;;9.70;99.90;;;;;;5038262;28;20119;-77
2023/04/01 06:31:42;;;;;;;16.33;11.18;;;9.70;99.90;;;;;;5048374;28;20090;-76
2023/04/01 06:34:27;;;;;;;15.75;11.02;;;9.70;99.90;;;;;;5047057;28;20112;-76
2023/04/01 06:37:19;;;;;;;14.82;10.35;;;9.70;99.90;;;;;;5037785;28;20045;-77
2023/04/01 06:39:55;;;;;;;14.57;10.65;;;9.70;99.90;;;;;;5027516;28;20085;-76
2023/04/01 06:42:32;;;;;;;18.20;11.30;;;9.70;99.90;;;;;;5021060;28;20413;-76
2023/04/01 06:45:24;;;;;;;16.45;12.05;;;9.70;99.90;;;;;;5033937;28;20041;-75
2023/04/01 06:48:22;;;;;;;;;;;9.70;99.90;;;;;;5023534;28;20049;-76
2023/04/01 06:51:04;;;;;;;18.20;12.30;;;9.70;99.90;;;;;;4964947;28;20452;-76
2023/04/01 06:53:39;;;;;;;20.33;14.32;;;9.70;99.90;;;;;;5024993;28;20076;-76
2023/04/01 06:56:12;;;;;;;23.58;15.45;;;9.80;99.90;;;;;;5036921;28;20033;-75
2023/04/01 06:58:44;;;;;;;21.02;15.77;;;9.80;99.90;;;;;;5009883;28;20057;-76
2023/04/01 07:01:16;;;;;;;20.88;14.38;;;9.80;99.90;;;;;;4999323;28;20448;-75
2023/04/01 07:03:53;;;;;;;21.38;15.05;;;9.80;99.90;;;;;;5022518;28;20049;-76
2023/04/01 07:06:46;;;;;;;21.85;15.68;;;9.90;99.90;;;;;;5006339;28;20041;-76
2023/04/01 07:09:37;;;;;;;22.85;15.93;;;9.90;99.90;;;;;;5017768;28;20041;-76
2023/04/01 07:12:31;;;;;;;24.17;15.17;;;10.00;99.90;;;;;;5020225;28;20060;-76
2023/04/01 07:15:03;;;;;;;22.48;15.25;;;10.00;99.90;;;;;;5027651;28;20049;-76
2023/04/01 07:17:33;;;;;;;24.98;16.67;;;10.00;99.90;;;;;;5023238;28;20053;-73
2023/04/01 07:20:03;;;;;;;24.50;17.48;;;10.00;99.90;;;;;;5025666;28;20453;-72
2023/04/01 07:22:37;;;;;;;21.85;15.98;;;10.00;99.90;;;;;;5009147;28;20037;-73
2023/04/01 07:25:12;;;;;;;24.08;17.10;;;10.00;99.90;;;;;;5008825;28;20081;-73
2023/04/01 07:27:38;;;;;;;25.80;17.55;;;10.00;99.90;;;;;;5012149;28;20041;-73
2023/04/01 07:30:20;;;;;;;27.73;19.05;;;10.00;99.90;;;;;;5017306;28;20087;-73
2023/04/01 07:33:11;;;;;;;26.45;19.00;;;10.00;99.90;;;;;;5016445;28;20585;-73
2023/04/01 07:35:54;;;;;;;26.10;18.20;;;10.10;99.90;;;;;;5019032;28;20038;-73
2023/04/01 07:38:46;;;;;;;25.35;18.13;;;10.10;99.90;;;;;;5017218;28;20458;-74
2023/04/01 07:41:37;;;;;;;24.80;17.52;;;10.10;99.90;;;;;;5002722;28;20508;-73
2023/04/01 07:44:21;;;;;;;26.77;19.35;;;10.20;99.90;;;;;;5019845;28;20049;-73
2023/04/01 07:47:05;;;;;;;22.60;17.35;;;10.20;99.90;;;;;;5010933;28;20098;-74
2023/04/01 07:49:38;;;;;;;27.27;18.88;;;10.20;99.90;;;;;;5017081;28;20053;-73
2023/04/01 07:52:13;;;;;;;26.48;17.58;;;10.30;99.90;;;;;;5027803;28;20083;-72
2023/04/01 07:54:53;;;;;;;25.02;16.38;;;10.30;99.90;;;;;;5020941;28;20049;-72
2023/04/01 07:57:40;;;;;;;22.23;15.85;;;10.40;99.90;;;;;;5023213;28;20037;-72
2023/04/01 08:00:23;;;;;;;20.67;14.90;;;10.40;99.90;;;;;;5018437;28;20155;-72
2023/04/01 08:02:57;;;;;;;20.08;14.80;;;10.40;99.90;;;;;;4999856;28;20057;-73
2023/04/01 08:05:30;;;;;;;19.23;13.98;;;10.40;99.90;;;;;;5039918;28;20414;-73
2023/04/01 08:08:15;;;;;;;19.67;13.68;;;10.40;99.90;;;;;;5001318;28;20037;-72
2023/04/01 08:10:49;;;;;;;20.55;15.40;;;10.40;99.90;;;;;;5002604;28;20042;-72
2023/04/01 08:13:35;;;;;;;19.73;14.55;;;10.40;99.90;;;;;;5018921;28;20056;-72
2023/04/01 08:16:17;;;;;;;23.50;15.32;;;10.40;99.90;;;;;;5020632;28;20041;-74
2023/04/01 08:19:11;;;;;;;19.40;15.20;;;10.40;99.90;;;;;;5024085;28;20049;-73
2023/04/01 08:21:44;;;;;;;21.85;15.35;;;10.40;99.90;;;;;;5022971;28;20414;-72
2023/04/01 08:24:29;;;;;;;21.63;15.20;;;10.40;99.90;;;;;;5004255;28;20049;-72
2023/04/01 08:26:59;;;;;;;23.40;16.13;;;10.40;99.90;;;;;;5010333;28;20060;-72
2023/04/01 08:29:42;;;;;;;22.25;16.23;;;10.40;99.90;;;;;;5031010;28;20072;-73
2023/04/01 08:32:17;;;;;;;22.27;17.00;;;10.40;99.90;;;;;;5009702;28;20501;-72
2023/04/01 08:34:50;;;;;;;21.20;16.15;;;10.40;99.90;;;;;;4981012;28;20053;-72
2023/04/01 08:37:28;;;;;;;22.92;16.80;;;10.50;99.90;;;;;;5005425;28;20669;-72
2023/04/01 08:40:16;;;;;;;22.60;15.73;;;10.50;99.90;;;;;;4996007;28;20690;-72
2023/04/01 08:42:51;;;;;;;19.00;13.48;;;10.50;99.90;;;;;;5012682;28;20059;-72
2023/04/01 08:45:32;;;;;;;17.88;13.25;;;10.50;99.90;;;;;;5020697;28;20156;-73
2023/04/01 08:47:58;;;;;;;;;;;10.60;99.90;;;;;;5026755;28;20046;-73
2023/04/01 08:50:35;;;;;;;17.50;12.50;;;10.60;99.90;;;;;;5016358;28;20704;-73
2023/04/01 08:53:22;;;;;;;15.20;11.65;;;10.60;99.90;;;;;;4992232;28;20051;-73
2023/04/01 08:56:00;;;;;;;16.60;12.80;;;10.70;99.90;;;;;;5019191;28;20196;-72
2023/04/01 08:58:32;;;;;;;17.92;13.40;;;10.70;99.90;;;;;;5012575;28;20041;-73
2023/04/01 09:01:30;;;;;;;19.83;13.75;;;10.80;99.90;;;;;;5016537;28;20053;-74
2023/04/01 09:04:28;;;;;;;19.08;13.63;;;10.80;99.90;;;;;;5019731;28;20050;-73
2023/04/01 09:07:09;;;;;;;17.48;12.38;;;10.80;99.90;;;;;;5022379;28;20080;-73
2023/04/01 09:09:50;;;;;;;13.63;9.15;;;10.90;99.90;;;;;;5014974;28;20457;-73
2023/04/01 09:12:34;;;;;;;12.07;7.72;;;10.80;99.90;;;;;;5016739;28;20204;-73
2023/04/01 09:15:20;;;;;;;11.55;6.57;;;10.80;99.90;;;;;;5015352;28;20060;-73
2023/04/01 09:17:56;;;;;;;11.50;7.32;;;10.70;99.90;;;;;;5010216;28;20051;-74
2023/04/01 09:20:47;;;;;;;10.88;6.82;;;10.70;99.90;;;;;;5010941;28;20103;-73
2023/04/01 09:23:28;;;;;;;10.02;6.57;;;10.50;99.90;;;;;;5014092;28;20041;-74
2023/04/01 09:26:15;;;;;;;10.38;6.30;;;10.50;99.90;;;;;;5031633;28;20049;-73
2023/04/01 09:28:59;;;;;;;9.80;6.45;;;10.40;99.90;;;;;;5020259;28;20600;-74
2023/04/01 09:32:05;;;;;;;10.25;6.68;;;10.40;99.90;;;;;;5033040;28;20545;-74
2023/04/01 09:34:51;;;;;;;13.50;7.40;;;10.30;99.90;;;;;;5012400;28;20046;-75
2023/04/01 09:37:27;;;;;;;9.13;5.50;;;10.20;99.90;;;;;;4994089;28;20537;-74
2023/04/01 09:40:16;;;;;;;9.35;4.47;;;10.10;99.90;;;;;;4996528;28;20061;-75
2023/04/01 09:42:51;;;;;;;10.25;5.05;;;10.10;99.90;;;;;;5021655;28;20045;-74
2023/04/01 09:45:41;;;;;;;8.48;4.70;;;10.00;99.90;;;;;;5003323;28;20079;-74
2023/04/01 09:48:24;;;;;;;8.98;4.55;;;10.00;99.90;;;;;;5015748;28;20521;-73
2023/04/01 09:51:15;;;;;;;8.13;4.20;;;10.00;99.90;;;;;;5019876;28;20077;-73
2023/04/01 09:54:12;;;;;;;12.25;4.55;;;9.90;99.90;;;;;;5024449;28;20056;-72
2023/04/01 09:57:02;;;;;;;7.28;2.88;;;9.90;99.90;;;;;;5010458;28;20525;-74
2023/04/01 09:59:37;;;;;;;5.20;2.80;;;9.80;99.90;;;;;;5015350;28;20052;-74
2023/04/01 10:02:23;;;;;;;6.13;3.17;;;9.80;99.90;;;;;;5001503;28;20184;-73
2023/04/01 10:04:49;;;;;;;8.27;3.40;;;9.80;99.90;;;;;;5042170;28;20033;-74
2023/04/01 10:07:35;;;;;;;8.40;3.70;;;9.80;99.90;;;;;;5022114;28;20068;-74
2023/04/01 10:10:07;;;;;;;7.38;3.67;;;9.80;99.90;;;;;;5010546;28;20053;-73
2023/04/01 10:13:18;;;;;;;7.38;3.80;;;9.80;99.90;;;;;;5022546;28;20049;-74
2023/04/01 10:16:18;;;;;;;7.25;3.63;;;9.80;99.90;;;;;;5006314;28;20053;-73
2023/04/01 10:19:11;;;;;;;6.60;3.20;;;9.80;99.90;;;;;;5004643;28;20048;-74
2023/04/01 10:22:17;;;;;;;6.07;2.92;;;9.70;99.90;;;;;;5020128;28;20516;-74
2023/04/01 10:24:49;;;;;;;6.95;3.60;;;9.80;99.90;;;;;;4999854;28;20060;-74
2023/04/01 10:27:37;;;;;;;7.00;3.20;;;9.70;99.90;;;;;;5019424;28;20065;-74
2023/04/01 10:30:31;;;;;;;6.93;3.25;;;9.70;99.90;;;;;;5019937;28;20073;-75
2023/04/01 10:33:28;;;;;;;5.70;2.80;;;9.70;99.90;;;;;;5008017;28;20050;-74
2023/04/01 10:36:00;;;;;;;5.50;3.08;;;9.60;99.90;;;;;;5011103;28;20099;-73
2023/04/01 10:38:58;;;;;;;7.18;2.80;;;9.60;99.90;;;;;;5012135;28;20077;-71
2023/04/01 10:42:02;;;;;;;6.95;3.22;;;9.50;99.90;;;;;;5008700;28;20056;-73
2023/04/01 10:44:31;;;;;;;6.70;2.22;;;9.50;99.90;;;;;;4999351;28;20060;-72
2023/04/01 10:47:12;;;;;;;5.72;2.72;;;9.40;99.90;;;;;;5016038;28;20068;-73
2023/04/01 10:50:10;;;;;;;5.22;2.67;;;9.40;99.90;;;;;;5018812;28;20049;-73
2023/04/01 10:52:44;;;;;;;5.10;2.55;;;9.40;99.90;;;;;;5014013;28;20049;-73
2023/04/01 10:55:35;;;;;;;5.85;2.60;;;9.40;99.90;;;;;;5010615;28;20042;-72
2023/04/01 10:58:28;;;;;;;4.03;2.05;;;9.40;99.90;;;;;;5007717;28;20132;-73
2023/04/01 11:01:18;;;;;;;5.80;2.05;;;9.40;99.90;;;;;;5014413;28;20045;-73
2023/04/01 11:04:16;;;;;;;4.82;2.30;;;9.40;99.90;;;;;;5003655;28;20053;-74
2023/04/01 11:07:39;;;;;;;5.75;2.25;;;9.40;99.90;;;;;;5012641;28;20048;-74
2023/04/01 11:10:10;;;;;;;4.82;2.40;;;9.40;99.90;;;;;;4979762;28;20108;-73
2023/04/01 11:12:58;;;;;;;5.70;2.60;;;9.50;99.90;;;;;;4976557;28;20052;-74
2023/04/01 11:15:46;;;;;;;6.32;2.55;;;9.40;99.90;;;;;;5024287;28;20053;-74
2023/04/01 11:18:30;;;;;;;4.38;2.33;;;9.40;99.90;;;;;;5015194;28;20049;-74
2023/04/01 11:21:34;;;;;;;7.90;2.33;;;9.40;99.90;;;;;;5009248;28;20550;-74
2023/04/01 11:24:09;;;;;;;4.80;2.38;;;9.40;99.90;;;;;;4991210;28;20517;-73
2023/04/01 11:27:21;;;;;;;5.22;2.20;;;9.40;99.90;;;;;;5017865;28;20042;-74
2023/04/01 11:30:05;;;;;;;5.68;2.65;;;9.40;99.90;;;;;;5008132;28;20645;-72
2023/04/01 11:32:51;;;;;;;5.43;2.58;;;9.40;99.90;;;;;;4993570;28;20042;-73
2023/04/01 11:35:20;;;;;;;6.15;2.45;;;9.40;99.90;;;;;;5006754;28;20120;-73
2023/04/01 11:38:28;;;;;;;5.10;2.78;;;9.40;99.90;;;;;;4995583;28;20041;-74
2023/04/01 11:41:07;;;;;;;5.38;2.33;;;9.30;99.90;;;;;;4942559;28;20136;-73
2023/04/01 11:44:09;;;;;;;4.78;2.55;;;9.30;99.90;;;;;;4960986;28;20134;-74
2023/04/01 11:46:45;;;;;;;5.30;2.50;;;9.30;99.90;;;;;;5008894;28;20606;-73
2023/04/01 11:49:37;;;;;;;6.22;2.40;;;9.30;99.90;;;;;;5019200;28;20037;-74
2023/04/01 11:52:20;;;;;;;6.32;2.60;;;9.30;99.90;;;;;;5025123;28;20046;-74
2023/04/01 11:55:14;;;;;;;4.93;2.40;;;9.30;99.90;;;;;;5023796;28;20505;-73
2023/04/01 11:58:07;;;;;;;5.38;2.20;;;9.30;99.90;;;;;;5025384;28;20053;-75
2023/04/01 12:00:51;;;;;;;6.15;2.33;;;9.30;99.90;;;;;;5023028;28;20220;-74
2023/04/01 12:03:37;;;;;;;6.75;2.53;;;9.40;99.90;;;;;;5013357;28;20049;-74
2023/04/01 12:06:21;;;;;;;7.28;2.28;;;9.30;99.90;;;;;;5036186;28;20996;-73
2023/04/01 12:08:57;;;;;;;9.05;2.22;;;9.30;99.90;;;;;;5031211;28;20053;-75
2023/04/01 12:11:56;;;;;;;4.28;2.10;;;9.30;99.90;;;;;;5004143;28;20541;-74
2023/04/01 12:14:21;;;;;;;3.95;1.80;;;9.30;99.90;;;;;;5021203;28;20402;-74
2023/04/01 12:17:06;;;;;;;4.15;2.00;;;9.30;99.90;;;;;;5021520;28;20042;-74
2023/04/01 12:19:46;;;;;;;6.85;2.10;;;9.30;99.90;;;;;;5009875;28;20064;-75
2023/04/01 12:22:40;;;;;;;4.95;1.77;;;9.30;99.90;;;;;;5019585;28;20049;-74
2023/04/01 12:25:33;;;;;;;4.07;2.05;;;9.30;99.90;;;;;;5022737;28;20133;-76
2023/04/01 12:28:37;;;;;;;6.63;2.38;;;9.30;99.90;;;;;;5035959;28;20041;-75
2023/04/01 12:31:26;;;;;;;5.50;2.03;;;9.30;99.90;;;;;;4994465;28;20056;-75
2023/04/01 12:34:24;;;;;;;6.10;1.83;;;9.30;99.90;;;;;;5023659;28;20617;-75
2023/04/01 12:37:07;;;;;;;4.60;1.83;;;9.30;99.90;;;;;;5022728;28;20041;-74
2023/04/01 12:39:42;;;;;;;5.85;1.95;;;9.30;99.90;;;;;;5019102;28;20046;-75
2023/04/01 12:42:47;;;;;;;4.57;2.03;;;9.30;99.90;;;;;;5043909;28;20920;-74
2023/04/01 12:45:22;;;;;;;4.93;1.92;;;9.30;99.90;;;;;;5028195;28;20060;-76
2023/04/01 12:48:00;;;;;;;6.25;2.10;;;9.30;99.90;;;;;;5019237;28;20045;-75
2023/04/01 12:50:45;;;;;;;4.38;2.00;;;9.60;99.90;;;;;;5020910;28;20065;-74
2023/04/01 12:53:22;;;;;;;3.40;1.70;;;9.30;99.90;;;;;;5029209;28;20072;-76
2023/04/01 12:55:52;;;;;;;4.68;1.98;;;9.30;99.90;;;;;;5013006;28;20457;-75
2023/04/01 12:58:45;;;;;;;3.42;1.70;;;9.30;99.90;;;;;;5032683;28;20125;-74
2023/04/01 13:02:00;;;;;;;8.30;2.08;;;9.30;99.90;;;;;;5017273;28;20073;-76
2023/04/01 13:04:32;;;;;;;3.70;1.70;;;9.30;99.90;;;;;;4968196;28;20530;-76
2023/04/01 13:07:24;;;;;;;3.92;1.77;;;9.20;99.90;;;;;;4959146;28;20057;-74
2023/04/01 13:10:11;;;;;;;4.57;2.10;;;9.20;99.90;;;;;;5004383;28;20103;-74
2023/04/01 13:12:43;;;;;;;4.00;1.92;;;9.20;99.90;;;;;;5027442;28;20053;-75
2023/04/01 13:15:37;;;;;;;4.95;2.28;;;9.20;99.90;;;;;;5022917;28;20129;-75
2023/04/01 13:18:31;;;;;;;5.18;2.42;;;9.20;99.90;;;;;;5032081;28;20199;-74
2023/04/01 13:21:13;;;;;;;3.72;1.80;;;9.30;99.90;;;;;;4993391;28;20106;-75
2023/04/01 13:24:09;;;;;;;5.35;1.80;;;9.30;99.90;;;;;;5013608;28;20050;-74
2023/04/01 13:26:56;;;;;;;3.75;1.70;;;9.30;99.90;;;;;;5023769;28;20037;-75
2023/04/01 13:29:59;;;;;;;4.03;1.85;;;9.30;99.90;;;;;;5022212;28;20449;-74
2023/04/01 13:32:34;;;;;;;4.38;2.08;;;9.30;99.90;;;;;;4993037;28;20064;-75
2023/04/01 13:35:00;;;;;;;4.25;2.53;;;9.20;99.90;;;;;;5024392;28;20033;-75